createdAt,value
2018-09-13T00:02:18.924Z,101649.43
2018-09-13T00:04:45.592Z,101645.55
2018-09-13T00:07:12.233Z,101651.34
2018-09-13T00:09:39.208Z,101650.50
2018-09-13T00:12:06.781Z,101646.89
2018-09-13T00:14:34.415Z,101647.72
2018-09-13T00:17:02.037Z,101641.45
2018-09-13T00:19:28.694Z,101641.94
2018-09-13T00:21:56.160Z,101639.86
2018-09-13T00:24:25.347Z,101645.17
2018-09-13T00:26:53.992Z,101650.48
2018-09-13T00:29:21.631Z,101658.71
2018-09-13T00:31:49.408Z,101656.08
2018-09-13T00:34:17.097Z,101657.27
2018-09-13T00:36:44.572Z,101654.10
2018-09-13T00:39:12.175Z,101649.31
2018-09-13T00:41:39.312Z,101650.76
2018-09-13T00:44:06.177Z,101651.11
2018-09-13T00:46:34.032Z,101654.94
2018-09-13T00:49:01.675Z,101653.28
2018-09-13T00:51:28.344Z,101669.09
2018-09-13T00:53:55.999Z,101674.89
2018-09-13T00:56:24.127Z,101674.41
2018-09-13T00:58:53.360Z,101675.03
2018-09-13T01:01:21.108Z,101678.30
2018-09-13T01:03:48.776Z,101672.49
2018-09-13T01:06:16.535Z,101669.34
2018-09-13T01:08:43.213Z,101673.47
2018-09-13T01:11:10.904Z,101678.30
2018-09-13T01:13:38.541Z,101681.32
2018-09-13T01:16:06.180Z,101678.39
2018-09-13T01:18:32.866Z,101677.44
2018-09-13T01:21:00.509Z,101668.03
2018-09-13T01:23:27.141Z,101664.91
2018-09-13T01:25:55.069Z,101666.22
2018-09-13T01:28:23.488Z,101666.32
2018-09-13T01:30:50.160Z,101667.30
2018-09-13T01:33:17.748Z,101675.03
2018-09-13T01:35:44.424Z,101669.84
2018-09-13T01:38:12.008Z,101673.23
2018-09-13T01:40:39.648Z,101664.99
2018-09-13T01:43:07.300Z,101662.23
2018-09-13T01:45:33.956Z,101659.92
2018-09-13T01:48:01.642Z,101659.92
2018-09-13T01:50:29.265Z,101656.18
2018-09-13T01:52:55.936Z,101650.76
2018-09-13T01:55:24.552Z,101658.95
2018-09-13T01:57:51.956Z,101659.09
2018-09-13T02:00:18.596Z,101661.25
2018-09-13T02:02:46.088Z,101659.79
2018-09-13T02:05:12.889Z,101665.87
2018-09-13T02:07:40.537Z,101672.86
2018-09-13T02:10:07.172Z,101672.23
2018-09-13T02:12:34.732Z,101666.94
2018-09-13T02:15:01.375Z,101672.61
2018-09-13T02:17:28.051Z,101668.25
2018-09-13T02:19:54.690Z,101674.91
2018-09-13T02:22:23.820Z,101679.86
2018-09-13T02:24:50.456Z,101677.69
2018-09-13T02:27:17.092Z,101674.68
2018-09-13T02:29:44.736Z,101673.45
2018-09-13T02:32:12.197Z,101672.75
2018-09-13T02:34:38.922Z,101667.31
2018-09-13T02:37:05.581Z,101659.92
2018-09-13T02:39:32.217Z,101668.14
2018-09-13T02:41:58.886Z,101664.77
2018-09-13T02:44:25.853Z,101658.02
2018-09-13T02:46:54.199Z,101658.84
2018-09-13T02:49:23.564Z,101662.72
2018-09-13T02:51:52.046Z,101658.72
2018-09-13T02:54:19.615Z,101650.17
2018-09-13T02:56:47.290Z,101649.92
2018-09-13T02:59:13.936Z,101647.36
2018-09-13T03:01:40.613Z,101642.05
2018-09-13T03:04:07.239Z,101647.97
2018-09-13T03:06:33.910Z,101656.94
2018-09-13T03:09:00.559Z,101657.52
2018-09-13T03:11:28.077Z,101660.43
2018-09-13T03:13:55.678Z,101651.50
2018-09-13T03:16:24.195Z,101654.37
2018-09-13T03:18:52.044Z,101648.20
2018-09-13T03:21:18.677Z,101652.08
2018-09-13T03:23:46.317Z,101651.13
2018-09-13T03:26:12.959Z,101658.62
2018-09-13T03:28:40.613Z,101652.33
2018-09-13T03:31:07.405Z,101653.03
2018-09-13T03:33:35.127Z,101658.27
2018-09-13T03:36:01.760Z,101649.05
2018-09-13T03:38:29.343Z,101655.95
2018-09-13T03:40:55.976Z,101649.20
2018-09-13T03:43:24.564Z,101644.59
2018-09-13T03:45:54.447Z,101632.91
2018-09-13T03:48:22.084Z,101637.61
2018-09-13T03:50:49.568Z,101638.32
2018-09-13T03:53:16.213Z,101636.98
2018-09-13T03:55:43.769Z,101635.19
2018-09-13T03:58:11.360Z,101635.66
2018-09-13T04:00:38.940Z,101630.83
2018-09-13T04:03:06.585Z,101623.91
2018-09-13T04:05:33.260Z,101618.58
2018-09-13T04:08:00.784Z,101611.55
2018-09-13T04:10:27.511Z,101610.92
2018-09-13T04:12:55.160Z,101613.47
2018-09-13T04:15:23.498Z,101618.90
2018-09-13T04:17:50.144Z,101623.34
2018-09-13T04:20:16.796Z,101626.14
2018-09-13T04:22:43.546Z,101627.47
2018-09-13T04:25:10.969Z,101625.16
2018-09-13T04:27:37.657Z,101626.00
2018-09-13T04:30:05.241Z,101632.20
2018-09-13T04:32:32.832Z,101626.50
2018-09-13T04:35:00.464Z,101631.46
2018-09-13T04:37:27.890Z,101625.55
2018-09-13T04:39:55.572Z,101624.22
2018-09-13T04:42:24.468Z,101622.53
2018-09-13T04:44:55.089Z,101625.68
2018-09-13T04:47:23.896Z,101628.83
2018-09-13T04:49:53.253Z,101625.68
2018-09-13T04:52:20.061Z,101626.87
2018-09-13T04:54:46.689Z,101626.03
2018-09-13T04:57:13.357Z,101629.67
2018-09-13T04:59:40.952Z,101629.05
2018-09-13T05:02:07.592Z,101638.13
2018-09-13T05:04:35.181Z,101635.83
2018-09-13T05:07:01.825Z,101636.80
2018-09-13T05:09:28.461Z,101636.07
2018-09-13T05:11:55.108Z,101637.64
2018-09-13T05:14:23.564Z,101639.22
2018-09-13T05:16:50.210Z,101640.44
2018-09-13T05:19:16.853Z,101638.73
2018-09-13T05:21:43.731Z,101642.12
2018-09-13T05:24:10.620Z,101633.20
2018-09-13T05:26:37.294Z,101630.54
2018-09-13T05:29:04.116Z,101640.80
2018-09-13T05:31:30.831Z,101639.22
2018-09-13T05:33:58.396Z,101635.85
2018-09-13T05:36:25.075Z,101634.03
2018-09-13T05:38:53.824Z,101627.63
2018-09-13T05:41:22.587Z,101615.94
2018-09-13T05:43:49.268Z,101620.88
2018-09-13T05:46:16.792Z,101627.88
2018-09-13T05:48:44.348Z,101630.17
2018-09-13T05:51:11.048Z,101640.94
2018-09-13T05:53:38.666Z,101641.05
2018-09-13T05:56:06.261Z,101644.91
2018-09-13T05:58:33.852Z,101644.09
2018-09-13T06:01:01.493Z,101638.77
2018-09-13T06:03:28.960Z,101635.61
2018-09-13T06:05:56.175Z,101647.34
2018-09-13T06:08:24.153Z,101651.22
2018-09-13T06:10:51.785Z,101642.52
2018-09-13T06:13:19.437Z,101645.06
2018-09-13T06:15:47.240Z,101647.94
2018-09-13T06:18:14.733Z,101647.94
2018-09-13T06:20:41.548Z,101641.44
2018-09-13T06:23:08.220Z,101636.34
2018-09-13T06:25:34.913Z,101637.77
2018-09-13T06:28:02.357Z,101630.42
2018-09-13T06:30:29.105Z,101632.34
2018-09-13T06:32:56.601Z,101636.34
2018-09-13T06:35:24.048Z,101638.77
2018-09-13T06:37:52.121Z,101633.84
2018-09-13T06:40:19.979Z,101645.80
2018-09-13T06:42:47.637Z,101644.22
2018-09-13T06:45:15.316Z,101654.59
2018-09-13T06:47:41.993Z,101654.37
2018-09-13T06:50:09.539Z,101653.26
2018-09-13T06:52:36.236Z,101651.09
2018-09-13T06:55:03.840Z,101662.56
2018-09-13T06:57:31.536Z,101656.54
2018-09-13T06:59:59.144Z,101656.29
2018-09-13T07:02:26.949Z,101652.06
2018-09-13T07:04:54.641Z,101656.54
2018-09-13T07:07:23.427Z,101672.59
2018-09-13T07:09:51.930Z,101690.36
2018-09-13T07:12:19.364Z,101687.11
2018-09-13T07:14:47.001Z,101687.72
2018-09-13T07:17:13.682Z,101691.11
2018-09-13T07:19:41.290Z,101691.82
2018-09-13T07:22:08.889Z,101687.72
2018-09-13T07:24:36.549Z,101685.78
2018-09-13T07:27:04.172Z,101679.16
2018-09-13T07:29:31.813Z,101676.83
2018-09-13T07:31:59.315Z,101676.20
2018-09-13T07:34:25.976Z,101682.88
2018-09-13T07:36:53.944Z,101682.89
2018-09-13T07:39:23.546Z,101681.42
2018-09-13T07:41:50.215Z,101685.78
2018-09-13T07:44:17.775Z,101685.41
2018-09-13T07:46:44.604Z,101689.66
2018-09-13T07:49:12.165Z,101685.90
2018-09-13T07:51:38.776Z,101692.81
2018-09-13T07:54:05.428Z,101695.10
2018-09-13T07:56:32.188Z,101688.44
2018-09-13T07:58:58.801Z,101688.19
2018-09-13T08:01:25.465Z,101686.52
2018-09-13T08:03:54.000Z,101691.11
2018-09-13T08:06:23.186Z,101689.88
2018-09-13T08:08:49.849Z,101690.86
2018-09-13T08:11:17.116Z,101682.42
2018-09-13T08:13:44.708Z,101691.11
2018-09-13T08:16:12.306Z,101689.66
2018-09-13T08:18:39.937Z,101694.72
2018-09-13T08:21:07.598Z,101690.51
2018-09-13T08:23:35.264Z,101695.47
2018-09-13T08:26:01.939Z,101692.44
2018-09-13T08:28:28.625Z,101686.88
2018-09-13T08:30:56.096Z,101682.18
2018-09-13T08:33:23.863Z,101686.52
2018-09-13T08:35:52.824Z,101681.91
2018-09-13T08:38:19.524Z,101684.59
2018-09-13T08:40:47.237Z,101681.89
2018-09-13T08:43:14.979Z,101678.55
2018-09-13T08:45:41.664Z,101676.97
2018-09-13T08:48:09.120Z,101674.31
2018-09-13T08:50:35.781Z,101672.84
2018-09-13T08:53:03.311Z,101680.05
2018-09-13T08:55:30.832Z,101675.82
2018-09-13T08:57:58.426Z,101677.75
2018-09-13T09:00:26.076Z,101688.27
2018-09-13T09:02:53.904Z,101697.80
2018-09-13T09:05:20.556Z,101692.59
2018-09-13T09:07:47.233Z,101691.88
2018-09-13T09:10:13.974Z,101685.38
2018-09-13T09:12:40.641Z,101684.89
2018-09-13T09:15:07.311Z,101679.67
2018-09-13T09:17:33.961Z,101690.06
2018-09-13T09:20:00.616Z,101692.84
2018-09-13T09:22:28.093Z,101686.68
2018-09-13T09:24:56.173Z,101687.27
2018-09-13T09:27:24.257Z,101681.60
2018-09-13T09:29:53.499Z,101676.26
2018-09-13T09:32:20.185Z,101674.09
2018-09-13T09:34:46.862Z,101664.67
2018-09-13T09:37:13.531Z,101654.17
2018-09-13T09:39:40.177Z,101636.89
2018-09-13T09:42:07.801Z,101633.50
2018-09-13T09:44:35.471Z,101624.67
2018-09-13T09:47:03.186Z,101628.56
2018-09-13T09:49:29.920Z,101641.23
2018-09-13T09:51:56.599Z,101655.50
2018-09-13T09:54:24.345Z,101664.18
2018-09-13T09:56:51.953Z,101679.55
2018-09-13T09:59:18.631Z,101678.22
2018-09-13T10:01:51.756Z,101677.72
2018-09-13T10:04:18.428Z,101676.77
2018-09-13T10:06:45.124Z,101676.77
2018-09-13T10:09:11.835Z,101680.14
2018-09-13T10:11:38.497Z,101677.37
2018-09-13T10:14:05.141Z,101669.15
2018-09-13T10:16:37.587Z,101673.13
2018-09-13T10:19:09.849Z,101668.09
2018-09-13T10:21:42.991Z,101657.67
2018-09-13T10:24:15.463Z,101657.70
2018-09-13T10:26:48.619Z,101648.88
2018-09-13T10:29:20.952Z,101644.89
2018-09-13T10:31:54.768Z,101648.88
2018-09-13T10:34:28.172Z,101641.39
2018-09-13T10:37:01.405Z,101633.77
2018-09-13T10:39:33.788Z,101640.05
2018-09-13T10:42:06.149Z,101642.23
2018-09-13T10:44:38.468Z,101641.39
2018-09-13T10:47:11.813Z,101641.77
2018-09-13T10:49:44.200Z,101635.97
2018-09-13T10:52:17.300Z,101642.12
2018-09-13T10:54:43.982Z,101638.00
2018-09-13T10:57:16.353Z,101644.89
2018-09-13T10:59:44.083Z,101643.10
2018-09-13T11:02:10.885Z,101635.09
2018-09-13T11:04:38.743Z,101638.11
2018-09-13T11:07:07.113Z,101638.62
2018-09-13T11:09:34.781Z,101632.22
2018-09-13T11:12:02.419Z,101621.83
2018-09-13T11:14:35.667Z,101612.73
2018-09-13T11:17:03.183Z,101618.20
2018-09-13T11:19:30.856Z,101624.60
2018-09-13T11:21:58.445Z,101633.03
2018-09-13T11:24:25.675Z,101623.52
2018-09-13T11:26:54.324Z,101617.22
2018-09-13T11:29:22.133Z,101619.87
2018-09-13T11:31:49.626Z,101625.81
2018-09-13T11:34:17.332Z,101624.24
2018-09-13T11:36:44.827Z,101631.84
2018-09-13T11:39:12.280Z,101626.17
2018-09-13T11:41:39.960Z,101631.73
2018-09-13T11:44:07.609Z,101622.21
2018-09-13T11:46:35.620Z,101636.56
2018-09-13T11:49:03.556Z,101640.66
2018-09-13T11:51:31.204Z,101637.40
2018-09-13T11:53:58.872Z,101636.56
2018-09-13T11:56:25.547Z,101637.64
2018-09-13T11:58:54.340Z,101634.27
2018-09-13T12:01:23.077Z,101628.37
2018-09-13T12:03:50.756Z,101625.81
2018-09-13T12:06:18.308Z,101621.23
2018-09-13T12:08:45.920Z,101616.78
2018-09-13T12:11:13.222Z,101608.20
2018-09-13T12:13:39.876Z,101616.89
2018-09-13T12:16:07.426Z,101618.84
2018-09-13T12:18:34.998Z,101621.72
2018-09-13T12:21:02.676Z,101617.11
2018-09-13T12:23:30.277Z,101615.78
2018-09-13T12:25:58.580Z,101621.36
2018-09-13T12:28:26.242Z,101631.29
2018-09-13T12:30:54.060Z,101628.01
2018-09-13T12:33:24.493Z,101625.13
2018-09-13T12:35:51.874Z,101627.41
2018-09-13T12:38:19.429Z,101626.09
2018-09-13T12:40:46.149Z,101619.30
2018-09-13T12:43:13.576Z,101615.07
2018-09-13T12:45:40.236Z,101616.30
2018-09-13T12:48:08.270Z,101620.03
2018-09-13T12:50:35.817Z,101615.08
2018-09-13T12:53:03.297Z,101611.00
2018-09-13T12:55:36.489Z,101609.08
2018-09-13T12:58:04.033Z,101606.39
2018-09-13T13:00:31.698Z,101597.20
2018-09-13T13:02:59.156Z,101604.44
2018-09-13T13:05:25.812Z,101602.87
2018-09-13T13:07:54.625Z,101596.68
2018-09-13T13:10:24.006Z,101594.75
2018-09-13T13:12:53.382Z,101592.02
2018-09-13T13:15:20.981Z,101587.02
2018-09-13T13:17:48.682Z,101583.69
2018-09-13T13:20:16.297Z,101578.73
2018-09-13T13:22:42.953Z,101576.34
2018-09-13T13:25:10.592Z,101579.30
2018-09-13T13:27:37.332Z,101575.30
2018-09-13T13:30:04.867Z,101575.58
2018-09-13T13:32:32.327Z,101561.70
2018-09-13T13:34:59.850Z,101559.88
2018-09-13T13:37:27.341Z,101562.16
2018-09-13T13:39:54.001Z,101556.84
2018-09-13T13:42:24.184Z,101555.61
2018-09-13T13:44:53.590Z,101555.54
2018-09-13T13:47:23.348Z,101555.56
2018-09-13T13:49:50.978Z,101555.64
2018-09-13T13:52:18.600Z,101560.47
2018-09-13T13:54:46.188Z,101555.05
2018-09-13T13:57:13.892Z,101555.75
2018-09-13T13:59:41.425Z,101551.55
2018-09-13T14:02:09.036Z,101558.55
2018-09-13T14:04:35.675Z,101555.16
2018-09-13T14:07:02.340Z,101549.48
2018-09-13T14:09:29.990Z,101556.03
2018-09-13T14:11:57.634Z,101549.14
2018-09-13T14:14:24.340Z,101553.61
2018-09-13T14:16:53.132Z,101547.67
2018-09-13T14:19:19.809Z,101545.78
2018-09-13T14:21:46.465Z,101540.19
2018-09-13T14:24:13.129Z,101535.15
2018-09-13T14:26:39.797Z,101535.84
2018-09-13T14:29:06.464Z,101525.95
2018-09-13T14:31:33.971Z,101529.94
2018-09-13T14:34:00.625Z,101536.20
2018-09-13T14:36:27.304Z,101539.13
2018-09-13T14:38:53.969Z,101537.42
2018-09-13T14:41:20.685Z,101540.19
2018-09-13T14:43:47.323Z,101540.19
2018-09-13T14:46:13.993Z,101544.31
2018-09-13T14:48:40.706Z,101537.98
2018-09-13T14:51:07.356Z,101546.34
2018-09-13T14:53:34.013Z,101541.13
2018-09-13T14:56:00.693Z,101530.29
2018-09-13T14:58:27.419Z,101535.81
2018-09-13T15:00:54.998Z,101537.28
2018-09-13T15:03:23.125Z,101538.99
2018-09-13T15:05:50.169Z,101549.16
2018-09-13T15:08:16.904Z,101543.09
2018-09-13T15:10:44.392Z,101539.59
2018-09-13T15:13:11.098Z,101538.02
2018-09-13T15:15:37.800Z,101543.33
2018-09-13T15:18:04.520Z,101539.23
2018-09-13T15:20:31.292Z,101532.84
2018-09-13T15:22:57.940Z,101529.45
2018-09-13T15:25:24.631Z,101533.33
2018-09-13T15:27:53.685Z,101522.31
2018-09-13T15:30:20.342Z,101515.70
2018-09-13T15:32:47.199Z,101510.11
2018-09-13T15:35:13.870Z,101505.42
2018-09-13T15:37:40.558Z,101506.61
2018-09-13T15:40:07.300Z,101499.38
2018-09-13T15:42:34.920Z,101502.98
2018-09-13T15:45:02.460Z,101502.62
2018-09-13T15:47:30.037Z,101492.10
2018-09-13T15:49:57.623Z,101497.17
2018-09-13T15:52:26.046Z,101498.74
2018-09-13T15:54:54.085Z,101498.74
2018-09-13T15:57:20.743Z,101494.66
2018-09-13T15:59:48.300Z,101490.80
2018-09-13T16:02:15.041Z,101488.46
2018-09-13T16:04:42.528Z,101492.59
2018-09-13T16:07:10.104Z,101491.75
2018-09-13T16:09:37.749Z,101488.22
2018-09-13T16:12:05.284Z,101492.10
2018-09-13T16:14:32.000Z,101496.61
2018-09-13T16:16:59.477Z,101495.88
2018-09-13T16:19:27.105Z,101497.55
2018-09-13T16:21:55.724Z,101499.23
2018-09-13T16:24:24.738Z,101498.98
2018-09-13T16:26:53.901Z,101496.96
2018-09-13T16:29:21.756Z,101492.73
2018-09-13T16:31:48.707Z,101486.58
2018-09-13T16:34:15.360Z,101487.63
2018-09-13T16:36:48.040Z,101488.01
2018-09-13T16:39:24.085Z,101486.82
2018-09-13T16:41:56.472Z,101492.98
2018-09-13T16:44:29.521Z,101490.91
2018-09-13T16:47:05.138Z,101483.81
2018-09-13T16:49:33.078Z,101484.16
2018-09-13T16:51:59.728Z,101486.92
2018-09-13T16:54:26.433Z,101484.02
2018-09-13T16:56:54.032Z,101481.95
2018-09-13T16:59:20.700Z,101479.52
2018-09-13T17:01:47.369Z,101483.63
2018-09-13T17:04:14.036Z,101477.97
2018-09-13T17:06:41.657Z,101487.77
2018-09-13T17:09:08.441Z,101478.02
2018-09-13T17:11:35.176Z,101481.85
2018-09-13T17:14:02.841Z,101482.20
2018-09-13T17:16:29.513Z,101487.77
2018-09-13T17:18:56.201Z,101488.74
2018-09-13T17:21:24.328Z,101493.08
2018-09-13T17:23:51.068Z,101497.66
2018-09-13T17:26:17.773Z,101505.28
2018-09-13T17:28:44.619Z,101500.45
2018-09-13T17:31:11.352Z,101500.45
2018-09-13T17:33:38.065Z,101499.23
2018-09-13T17:36:04.814Z,101493.67
2018-09-13T17:38:31.472Z,101500.95
2018-09-13T17:40:58.100Z,101500.11
2018-09-13T17:43:24.825Z,101505.14
2018-09-13T17:45:52.575Z,101508.19
2018-09-13T17:48:20.213Z,101511.92
2018-09-13T17:50:46.877Z,101507.73
2018-09-13T17:53:14.236Z,101504.20
2018-09-13T17:55:40.960Z,101508.08
2018-09-13T17:58:07.759Z,101512.55
2018-09-13T18:00:35.576Z,101503.85
2018-09-13T18:03:02.336Z,101499.27
2018-09-13T18:05:28.984Z,101504.69
2018-09-13T18:07:55.726Z,101510.50
2018-09-13T18:10:24.320Z,101504.69
2018-09-13T18:12:53.704Z,101509.76
2018-09-13T18:15:21.976Z,101504.45
2018-09-13T18:17:49.526Z,101507.48
2018-09-13T18:20:16.165Z,101513.50
2018-09-13T18:22:43.049Z,101507.48
2018-09-13T18:25:09.693Z,101508.49
2018-09-13T18:27:36.469Z,101506.57
2018-09-13T18:30:03.324Z,101514.48
2018-09-13T18:32:30.060Z,101509.66
2018-09-13T18:34:57.762Z,101516.16
2018-09-13T18:37:24.418Z,101514.83
2018-09-13T18:39:55.488Z,101510.84
2018-09-13T18:42:23.184Z,101512.91
2018-09-13T18:44:49.879Z,101509.52
2018-09-13T18:47:16.573Z,101511.61
2018-09-13T18:49:44.234Z,101511.13
2018-09-13T18:52:11.812Z,101512.55
2018-09-13T18:54:39.393Z,101511.65
2018-09-13T18:57:06.050Z,101510.63
2018-09-13T18:59:32.870Z,101508.56
2018-09-13T19:02:00.262Z,101505.90
2018-09-13T19:04:27.740Z,101515.06
2018-09-13T19:06:54.532Z,101514.33
2018-09-13T19:09:23.293Z,101522.66
2018-09-13T19:11:49.994Z,101522.30
2018-09-13T19:14:16.714Z,101521.67
2018-09-13T19:16:45.028Z,101524.47
2018-09-13T19:19:12.658Z,101523.63
2018-09-13T19:21:40.286Z,101526.54
2018-09-13T19:24:06.982Z,101528.47
2018-09-13T19:26:33.680Z,101527.97
2018-09-13T19:29:00.330Z,101533.43
2018-09-13T19:31:27.999Z,101530.04
2018-09-13T19:33:54.649Z,101537.17
2018-09-13T19:36:21.298Z,101533.68
2018-09-13T19:38:49.556Z,101536.69
2018-09-13T19:41:17.336Z,101537.17
2018-09-13T19:43:44.044Z,101538.02
2018-09-13T19:46:10.677Z,101539.20
2018-09-13T19:48:38.180Z,101538.36
2018-09-13T19:51:05.872Z,101534.28
2018-09-13T19:53:33.488Z,101536.48
2018-09-13T19:56:00.160Z,101534.28
2018-09-13T19:58:27.777Z,101530.78
2018-09-13T20:00:55.492Z,101528.02
2018-09-13T20:03:23.358Z,101533.58
2018-09-13T20:05:50.016Z,101531.16
2018-09-13T20:08:16.780Z,101535.15
2018-09-13T20:10:43.489Z,101533.19
2018-09-13T20:13:10.129Z,101537.31
2018-09-13T20:15:36.774Z,101534.66
2018-09-13T20:18:03.461Z,101531.16
2018-09-13T20:20:31.024Z,101530.88
2018-09-13T20:22:57.716Z,101531.55
2018-09-13T20:25:24.488Z,101531.05
2018-09-13T20:27:54.989Z,101536.13
2018-09-13T20:30:22.773Z,101536.86
2018-09-13T20:32:50.674Z,101539.28
2018-09-13T20:35:17.383Z,101540.47
2018-09-13T20:37:43.993Z,101534.80
2018-09-13T20:40:11.849Z,101545.20
2018-09-13T20:42:39.093Z,101542.08
2018-09-13T20:45:06.921Z,101537.22
2018-09-13T20:47:33.620Z,101532.63
2018-09-13T20:50:00.264Z,101536.38
2018-09-13T20:52:27.952Z,101535.19
2018-09-13T20:54:54.598Z,101531.20
2018-09-13T20:57:21.324Z,101532.04
2018-09-13T20:59:47.980Z,101536.13
2018-09-13T21:02:14.697Z,101531.94
2018-09-13T21:04:41.357Z,101532.04
2018-09-13T21:07:08.038Z,101534.24
2018-09-13T21:09:35.621Z,101531.83
2018-09-13T21:12:02.444Z,101532.17
2018-09-13T21:14:29.151Z,101531.94
2018-09-13T21:16:56.222Z,101534.77
2018-09-13T21:19:25.290Z,101539.80
2018-09-13T21:21:53.294Z,101535.47
2018-09-13T21:24:20.110Z,101542.59
2018-09-13T21:26:50.880Z,101543.58
2018-09-13T21:29:17.585Z,101537.77
2018-09-13T21:31:45.308Z,101539.45
2018-09-13T21:34:11.985Z,101537.42
2018-09-13T21:36:38.793Z,101537.28
2018-09-13T21:39:06.918Z,101541.38
2018-09-13T21:41:33.650Z,101543.09
2018-09-13T21:44:00.934Z,101547.91
2018-09-13T21:46:28.440Z,101546.94
2018-09-13T21:48:55.925Z,101555.19
2018-09-13T21:51:23.300Z,101551.06
2018-09-13T21:53:51.045Z,101553.09
2018-09-13T21:56:17.733Z,101562.67
2018-09-13T21:58:44.385Z,101570.40
2018-09-13T22:01:12.013Z,101564.00
2018-09-13T22:03:38.657Z,101555.89
2018-09-13T22:06:08.639Z,101560.86
2018-09-13T22:08:35.277Z,101556.73
2018-09-13T22:11:03.684Z,101561.20
2018-09-13T22:13:30.577Z,101560.50
2018-09-13T22:16:01.031Z,101567.02
2018-09-13T22:18:28.876Z,101555.64
2018-09-13T22:20:56.514Z,101552.53
2018-09-13T22:23:24.481Z,101552.98
2018-09-13T22:25:51.180Z,101554.10
2018-09-13T22:28:17.868Z,101564.48
2018-09-13T22:30:44.509Z,101559.91
2018-09-13T22:33:11.220Z,101555.89
2018-09-13T22:35:37.894Z,101554.94
2018-09-13T22:38:04.557Z,101557.46
2018-09-13T22:40:32.064Z,101564.88
2018-09-13T22:42:58.725Z,101573.30
2018-09-13T22:45:25.344Z,101570.40
2018-09-13T22:47:53.702Z,101566.93
2018-09-13T22:50:21.172Z,101566.09
2018-09-13T22:52:48.815Z,101568.96
2018-09-13T22:55:16.417Z,101565.33
2018-09-13T22:57:44.043Z,101565.71
2018-09-13T23:00:10.685Z,101565.60
2018-09-13T23:02:43.956Z,101558.69
2018-09-13T23:05:10.635Z,101555.56
2018-09-13T23:07:37.329Z,101561.61
2018-09-13T23:10:04.845Z,101561.64
2018-09-13T23:12:31.497Z,101558.98
2018-09-13T23:14:58.156Z,101562.59
2018-09-13T23:17:24.860Z,101555.59
2018-09-13T23:19:51.466Z,101557.27
2018-09-13T23:22:18.740Z,101564.41
2018-09-13T23:24:46.313Z,101558.98
2018-09-13T23:27:13.929Z,101563.91
2018-09-13T23:29:41.552Z,101558.11
2018-09-13T23:32:08.236Z,101557.76
2018-09-13T23:34:34.884Z,101561.64
2018-09-13T23:37:01.524Z,101562.59
2018-09-13T23:39:28.281Z,101563.56
2018-09-13T23:41:54.869Z,101562.37
2018-09-13T23:44:22.974Z,101562.23
2018-09-13T23:46:50.456Z,101561.39
2018-09-13T23:49:17.123Z,101563.08
2018-09-13T23:51:44.638Z,101561.86
2018-09-13T23:54:11.260Z,101561.64
2018-09-13T23:56:38.872Z,101560.20
2018-09-13T23:59:06.493Z,101564.41
